Terminal Aerodrome Forecast
Issued by NWS Spokane, WA

Home | Current Version | Previous Version | Text Only | Print | Product List | Glossary On
Versions: 1 2 3 4 5 6 7 8 9 10 11 12 13
000
FTUS46 KOTX 290524
TAFLWS
TAF
KLWS 290524Z 2906/3006 16004KT P6SM SKC
     FM290900 12004KT P6SM SCT150
     FM292000 34005KT P6SM SKC
     FM300200 30006KT P6SM SKC=

USA.gov is the U.S. government's official web portal to all federal, state and local government web resources and services.